sensor_id;sensor_type;location;lat;lon;timestamp;P1;durP1;ratioP1;P2;durP2;ratioP2
16845;SDS011;8539;53.188;8.696;2022-07-23T00:01:26;2.97;;;2.30;;
16845;SDS011;8539;53.188;8.696;2022-07-23T00:03:53;6.20;;;2.47;;
16845;SDS011;8539;53.188;8.696;2022-07-23T00:06:20;6.30;;;2.00;;
16845;SDS011;8539;53.188;8.696;2022-07-23T00:08:50;3.38;;;1.98;;
16845;SDS011;8539;53.188;8.696;2022-07-23T00:11:17;3.95;;;2.40;;
16845;SDS011;8539;53.188;8.696;2022-07-23T00:13:43;4.53;;;2.50;;
16845;SDS011;8539;53.188;8.696;2022-07-23T00:16:10;7.32;;;2.90;;
16845;SDS011;8539;53.188;8.696;2022-07-23T00:18:36;2.60;;;2.28;;
16845;SDS011;8539;53.188;8.696;2022-07-23T00:21:02;4.88;;;2.67;;
16845;SDS011;8539;53.188;8.696;2022-07-23T00:23:30;2.65;;;2.03;;
16845;SDS011;8539;53.188;8.696;2022-07-23T00:25:56;11.07;;;3.17;;
16845;SDS011;8539;53.188;8.696;2022-07-23T00:28:23;5.00;;;3.50;;
16845;SDS011;8539;53.188;8.696;2022-07-23T00:30:49;4.63;;;2.60;;
16845;SDS011;8539;53.188;8.696;2022-07-23T00:33:15;5.25;;;2.45;;
16845;SDS011;8539;53.188;8.696;2022-07-23T00:35:41;5.45;;;2.28;;
16845;SDS011;8539;53.188;8.696;2022-07-23T00:38:08;4.55;;;2.10;;
16845;SDS011;8539;53.188;8.696;2022-07-23T00:40:36;5.55;;;2.20;;
16845;SDS011;8539;53.188;8.696;2022-07-23T00:43:04;4.03;;;2.17;;
16845;SDS011;8539;53.188;8.696;2022-07-23T00:45:30;4.50;;;3.20;;
16845;SDS011;8539;53.188;8.696;2022-07-23T00:47:57;6.78;;;2.50;;
16845;SDS011;8539;53.188;8.696;2022-07-23T00:50:23;9.15;;;2.80;;
16845;SDS011;8539;53.188;8.696;2022-07-23T00:52:50;8.65;;;3.38;;
16845;SDS011;8539;53.188;8.696;2022-07-23T00:55:18;7.53;;;2.88;;
16845;SDS011;8539;53.188;8.696;2022-07-23T00:57:44;7.78;;;2.67;;
16845;SDS011;8539;53.188;8.696;2022-07-23T01:00:12;6.05;;;2.85;;
16845;SDS011;8539;53.188;8.696;2022-07-23T01:02:47;8.40;;;3.42;;
16845;SDS011;8539;53.188;8.696;2022-07-23T01:05:14;6.03;;;2.92;;
16845;SDS011;8539;53.188;8.696;2022-07-23T01:07:42;7.88;;;3.08;;
16845;SDS011;8539;53.188;8.696;2022-07-23T01:10:10;5.68;;;2.88;;
16845;SDS011;8539;53.188;8.696;2022-07-23T01:12:57;3.95;;;3.08;;
16845;SDS011;8539;53.188;8.696;2022-07-23T01:15:31;4.88;;;3.17;;
16845;SDS011;8539;53.188;8.696;2022-07-23T01:18:02;5.25;;;2.63;;
16845;SDS011;8539;53.188;8.696;2022-07-23T01:20:30;12.07;;;2.92;;
16845;SDS011;8539;53.188;8.696;2022-07-23T01:22:57;8.30;;;3.15;;
16845;SDS011;8539;53.188;8.696;2022-07-23T01:25:24;6.55;;;3.00;;
16845;SDS011;8539;53.188;8.696;2022-07-23T01:27:55;6.75;;;3.45;;
16845;SDS011;8539;53.188;8.696;2022-07-23T01:30:30;5.93;;;3.88;;
16845;SDS011;8539;53.188;8.696;2022-07-23T01:32:56;7.50;;;2.97;;
16845;SDS011;8539;53.188;8.696;2022-07-23T01:35:22;7.15;;;3.72;;
16845;SDS011;8539;53.188;8.696;2022-07-23T01:37:48;5.90;;;3.00;;
16845;SDS011;8539;53.188;8.696;2022-07-23T01:40:14;6.43;;;2.88;;
16845;SDS011;8539;53.188;8.696;2022-07-23T01:42:41;6.78;;;3.10;;
16845;SDS011;8539;53.188;8.696;2022-07-23T01:45:07;6.65;;;3.15;;
16845;SDS011;8539;53.188;8.696;2022-07-23T01:47:33;6.97;;;3.15;;
16845;SDS011;8539;53.188;8.696;2022-07-23T01:50:00;6.47;;;3.72;;
16845;SDS011;8539;53.188;8.696;2022-07-23T01:52:26;5.50;;;4.53;;
16845;SDS011;8539;53.188;8.696;2022-07-23T01:54:53;8.05;;;3.92;;
16845;SDS011;8539;53.188;8.696;2022-07-23T01:57:19;8.30;;;4.40;;
16845;SDS011;8539;53.188;8.696;2022-07-23T01:59:45;8.32;;;5.38;;
16845;SDS011;8539;53.188;8.696;2022-07-23T02:02:11;5.95;;;4.32;;
16845;SDS011;8539;53.188;8.696;2022-07-23T02:04:38;11.95;;;5.70;;
16845;SDS011;8539;53.188;8.696;2022-07-23T02:07:04;8.68;;;5.30;;
16845;SDS011;8539;53.188;8.696;2022-07-23T02:09:31;5.93;;;4.75;;
16845;SDS011;8539;53.188;8.696;2022-07-23T02:11:57;12.82;;;4.72;;
16845;SDS011;8539;53.188;8.696;2022-07-23T02:14:24;7.32;;;4.50;;
16845;SDS011;8539;53.188;8.696;2022-07-23T02:16:51;8.65;;;5.30;;
16845;SDS011;8539;53.188;8.696;2022-07-23T02:19:18;7.72;;;6.15;;
16845;SDS011;8539;53.188;8.696;2022-07-23T02:21:44;10.18;;;5.60;;
16845;SDS011;8539;53.188;8.696;2022-07-23T02:24:10;9.15;;;4.70;;
16845;SDS011;8539;53.188;8.696;2022-07-23T02:26:37;10.27;;;5.72;;
16845;SDS011;8539;53.188;8.696;2022-07-23T02:29:03;11.13;;;5.95;;
16845;SDS011;8539;53.188;8.696;2022-07-23T02:31:30;11.55;;;5.40;;
16845;SDS011;8539;53.188;8.696;2022-07-23T02:33:57;7.00;;;5.68;;
16845;SDS011;8539;53.188;8.696;2022-07-23T02:36:23;8.63;;;5.55;;
16845;SDS011;8539;53.188;8.696;2022-07-23T02:38:49;11.15;;;5.28;;
16845;SDS011;8539;53.188;8.696;2022-07-23T02:41:16;8.55;;;4.90;;
16845;SDS011;8539;53.188;8.696;2022-07-23T02:43:45;8.65;;;4.82;;
16845;SDS011;8539;53.188;8.696;2022-07-23T02:46:11;5.93;;;4.93;;
16845;SDS011;8539;53.188;8.696;2022-07-23T02:48:38;7.07;;;5.43;;
16845;SDS011;8539;53.188;8.696;2022-07-23T02:51:04;4.85;;;4.22;;
16845;SDS011;8539;53.188;8.696;2022-07-23T02:53:30;10.45;;;5.50;;
16845;SDS011;8539;53.188;8.696;2022-07-23T02:55:57;8.27;;;4.53;;
16845;SDS011;8539;53.188;8.696;2022-07-23T02:58:25;7.55;;;4.57;;
16845;SDS011;8539;53.188;8.696;2022-07-23T03:00:52;8.15;;;4.57;;
16845;SDS011;8539;53.188;8.696;2022-07-23T03:03:19;5.97;;;4.20;;
16845;SDS011;8539;53.188;8.696;2022-07-23T03:05:45;10.13;;;4.28;;
16845;SDS011;8539;53.188;8.696;2022-07-23T03:08:11;7.03;;;4.63;;
16845;SDS011;8539;53.188;8.696;2022-07-23T03:10:37;8.35;;;4.55;;
16845;SDS011;8539;53.188;8.696;2022-07-23T03:13:03;6.32;;;3.78;;
16845;SDS011;8539;53.188;8.696;2022-07-23T03:15:30;6.30;;;4.75;;
16845;SDS011;8539;53.188;8.696;2022-07-23T03:17:56;8.88;;;5.45;;
16845;SDS011;8539;53.188;8.696;2022-07-23T03:20:22;8.73;;;5.15;;
16845;SDS011;8539;53.188;8.696;2022-07-23T03:22:48;6.35;;;3.88;;
16845;SDS011;8539;53.188;8.696;2022-07-23T03:25:14;6.80;;;4.10;;
16845;SDS011;8539;53.188;8.696;2022-07-23T03:27:40;7.22;;;4.18;;
16845;SDS011;8539;53.188;8.696;2022-07-23T03:30:10;7.05;;;4.40;;
16845;SDS011;8539;53.188;8.696;2022-07-23T03:32:37;5.43;;;4.10;;
16845;SDS011;8539;53.188;8.696;2022-07-23T03:35:03;5.50;;;3.38;;
16845;SDS011;8539;53.188;8.696;2022-07-23T03:37:30;10.80;;;4.40;;
16845;SDS011;8539;53.188;8.696;2022-07-23T03:39:56;6.65;;;4.25;;
16845;SDS011;8539;53.188;8.696;2022-07-23T03:42:22;6.65;;;4.18;;
16845;SDS011;8539;53.188;8.696;2022-07-23T03:44:49;6.57;;;4.35;;
16845;SDS011;8539;53.188;8.696;2022-07-23T03:47:15;11.27;;;5.70;;
16845;SDS011;8539;53.188;8.696;2022-07-23T03:49:42;10.48;;;4.78;;
16845;SDS011;8539;53.188;8.696;2022-07-23T03:52:09;6.78;;;4.10;;
16845;SDS011;8539;53.188;8.696;2022-07-23T03:54:35;7.30;;;4.25;;
16845;SDS011;8539;53.188;8.696;2022-07-23T03:57:02;8.15;;;4.85;;
16845;SDS011;8539;53.188;8.696;2022-07-23T03:59:28;7.45;;;4.85;;
16845;SDS011;8539;53.188;8.696;2022-07-23T04:01:54;7.68;;;4.40;;
16845;SDS011;8539;53.188;8.696;2022-07-23T04:04:20;12.35;;;5.13;;
16845;SDS011;8539;53.188;8.696;2022-07-23T04:06:47;6.70;;;4.72;;
16845;SDS011;8539;53.188;8.696;2022-07-23T04:09:13;9.20;;;5.38;;
16845;SDS011;8539;53.188;8.696;2022-07-23T04:11:39;6.30;;;5.20;;
16845;SDS011;8539;53.188;8.696;2022-07-23T04:14:05;6.38;;;4.63;;
16845;SDS011;8539;53.188;8.696;2022-07-23T04:16:32;7.40;;;4.53;;
16845;SDS011;8539;53.188;8.696;2022-07-23T04:18:59;7.55;;;4.22;;
16845;SDS011;8539;53.188;8.696;2022-07-23T04:21:25;7.72;;;5.60;;
16845;SDS011;8539;53.188;8.696;2022-07-23T04:23:51;7.20;;;4.60;;
16845;SDS011;8539;53.188;8.696;2022-07-23T04:26:20;10.50;;;4.43;;
16845;SDS011;8539;53.188;8.696;2022-07-23T04:28:46;5.63;;;4.60;;
16845;SDS011;8539;53.188;8.696;2022-07-23T04:31:13;10.45;;;4.30;;
16845;SDS011;8539;53.188;8.696;2022-07-23T04:33:39;5.07;;;4.57;;
16845;SDS011;8539;53.188;8.696;2022-07-23T04:36:05;9.00;;;4.60;;
16845;SDS011;8539;53.188;8.696;2022-07-23T04:38:32;4.25;;;3.75;;
16845;SDS011;8539;53.188;8.696;2022-07-23T04:40:58;6.10;;;4.40;;
16845;SDS011;8539;53.188;8.696;2022-07-23T04:43:25;7.18;;;3.60;;
16845;SDS011;8539;53.188;8.696;2022-07-23T04:45:51;9.30;;;4.35;;
16845;SDS011;8539;53.188;8.696;2022-07-23T04:48:18;10.43;;;4.18;;
16845;SDS011;8539;53.188;8.696;2022-07-23T04:50:44;7.20;;;4.03;;
16845;SDS011;8539;53.188;8.696;2022-07-23T04:53:10;20.48;;;4.22;;
16845;SDS011;8539;53.188;8.696;2022-07-23T04:55:37;11.25;;;3.88;;
16845;SDS011;8539;53.188;8.696;2022-07-23T04:58:03;6.40;;;4.18;;
16845;SDS011;8539;53.188;8.696;2022-07-23T05:00:29;6.93;;;3.88;;
16845;SDS011;8539;53.188;8.696;2022-07-23T05:02:55;5.85;;;3.78;;
16845;SDS011;8539;53.188;8.696;2022-07-23T05:05:21;7.40;;;3.83;;
16845;SDS011;8539;53.188;8.696;2022-07-23T05:07:48;6.28;;;3.58;;
16845;SDS011;8539;53.188;8.696;2022-07-23T05:10:14;6.03;;;3.88;;
16845;SDS011;8539;53.188;8.696;2022-07-23T05:12:40;8.32;;;4.32;;
16845;SDS011;8539;53.188;8.696;2022-07-23T05:15:06;5.43;;;3.97;;
16845;SDS011;8539;53.188;8.696;2022-07-23T05:17:33;6.50;;;4.75;;
16845;SDS011;8539;53.188;8.696;2022-07-23T05:19:59;5.53;;;3.97;;
16845;SDS011;8539;53.188;8.696;2022-07-23T05:22:25;8.93;;;5.13;;
16845;SDS011;8539;53.188;8.696;2022-07-23T05:24:51;12.18;;;4.63;;
16845;SDS011;8539;53.188;8.696;2022-07-23T05:27:18;7.28;;;4.90;;
16845;SDS011;8539;53.188;8.696;2022-07-23T05:29:44;8.27;;;4.65;;
16845;SDS011;8539;53.188;8.696;2022-07-23T05:32:10;6.07;;;4.70;;
16845;SDS011;8539;53.188;8.696;2022-07-23T05:34:36;7.43;;;5.53;;
16845;SDS011;8539;53.188;8.696;2022-07-23T05:37:02;5.32;;;4.20;;
16845;SDS011;8539;53.188;8.696;2022-07-23T05:39:29;7.97;;;5.50;;
16845;SDS011;8539;53.188;8.696;2022-07-23T05:41:55;8.43;;;4.88;;
16845;SDS011;8539;53.188;8.696;2022-07-23T05:44:21;7.65;;;4.55;;
16845;SDS011;8539;53.188;8.696;2022-07-23T05:46:47;6.03;;;4.38;;
16845;SDS011;8539;53.188;8.696;2022-07-23T05:49:14;5.05;;;4.05;;
16845;SDS011;8539;53.188;8.696;2022-07-23T05:51:40;4.88;;;3.58;;
16845;SDS011;8539;53.188;8.696;2022-07-23T05:54:06;4.72;;;3.58;;
16845;SDS011;8539;53.188;8.696;2022-07-23T05:56:32;4.05;;;3.45;;
16845;SDS011;8539;53.188;8.696;2022-07-23T05:58:58;7.57;;;3.92;;
16845;SDS011;8539;53.188;8.696;2022-07-23T06:01:25;6.03;;;3.83;;
16845;SDS011;8539;53.188;8.696;2022-07-23T06:03:51;5.35;;;4.10;;
16845;SDS011;8539;53.188;8.696;2022-07-23T06:06:17;3.70;;;3.40;;
16845;SDS011;8539;53.188;8.696;2022-07-23T06:08:44;8.20;;;3.30;;
16845;SDS011;8539;53.188;8.696;2022-07-23T06:11:10;3.67;;;2.97;;
16845;SDS011;8539;53.188;8.696;2022-07-23T06:13:36;5.18;;;2.65;;
16845;SDS011;8539;53.188;8.696;2022-07-23T06:16:03;7.35;;;3.38;;
16845;SDS011;8539;53.188;8.696;2022-07-23T06:18:29;4.45;;;2.75;;
16845;SDS011;8539;53.188;8.696;2022-07-23T06:20:55;3.85;;;2.35;;
16845;SDS011;8539;53.188;8.696;2022-07-23T06:23:22;4.00;;;3.05;;
16845;SDS011;8539;53.188;8.696;2022-07-23T06:25:48;3.55;;;2.20;;
16845;SDS011;8539;53.188;8.696;2022-07-23T06:28:14;9.77;;;2.90;;
16845;SDS011;8539;53.188;8.696;2022-07-23T06:30:43;3.75;;;2.45;;
16845;SDS011;8539;53.188;8.696;2022-07-23T06:33:09;5.53;;;2.45;;
16845;SDS011;8539;53.188;8.696;2022-07-23T06:35:37;4.55;;;1.90;;
16845;SDS011;8539;53.188;8.696;2022-07-23T06:38:03;4.03;;;1.70;;
16845;SDS011;8539;53.188;8.696;2022-07-23T06:40:29;2.95;;;1.50;;
16845;SDS011;8539;53.188;8.696;2022-07-23T06:42:55;4.90;;;2.25;;
16845;SDS011;8539;53.188;8.696;2022-07-23T06:45:22;4.38;;;1.40;;
16845;SDS011;8539;53.188;8.696;2022-07-23T06:47:48;2.80;;;1.48;;
16845;SDS011;8539;53.188;8.696;2022-07-23T06:50:14;1.83;;;1.38;;
16845;SDS011;8539;53.188;8.696;2022-07-23T06:52:41;1.52;;;1.40;;
16845;SDS011;8539;53.188;8.696;2022-07-23T06:55:07;1.80;;;1.30;;
16845;SDS011;8539;53.188;8.696;2022-07-23T06:57:33;2.80;;;1.58;;
16845;SDS011;8539;53.188;8.696;2022-07-23T06:59:59;3.92;;;1.60;;
16845;SDS011;8539;53.188;8.696;2022-07-23T07:02:26;2.58;;;1.52;;
16845;SDS011;8539;53.188;8.696;2022-07-23T07:04:52;3.50;;;1.25;;
16845;SDS011;8539;53.188;8.696;2022-07-23T07:07:18;5.97;;;1.85;;
16845;SDS011;8539;53.188;8.696;2022-07-23T07:09:44;2.25;;;1.60;;
16845;SDS011;8539;53.188;8.696;2022-07-23T07:12:11;2.65;;;1.65;;
16845;SDS011;8539;53.188;8.696;2022-07-23T07:14:40;4.65;;;2.30;;
16845;SDS011;8539;53.188;8.696;2022-07-23T07:17:06;3.92;;;1.90;;
16845;SDS011;8539;53.188;8.696;2022-07-23T07:19:33;3.45;;;2.00;;
16845;SDS011;8539;53.188;8.696;2022-07-23T07:21:59;2.17;;;1.98;;
16845;SDS011;8539;53.188;8.696;2022-07-23T07:24:25;2.80;;;1.88;;
16845;SDS011;8539;53.188;8.696;2022-07-23T07:26:51;2.58;;;1.88;;
16845;SDS011;8539;53.188;8.696;2022-07-23T07:29:17;3.97;;;2.25;;
16845;SDS011;8539;53.188;8.696;2022-07-23T07:31:44;4.18;;;2.38;;
16845;SDS011;8539;53.188;8.696;2022-07-23T07:34:10;4.00;;;2.13;;
16845;SDS011;8539;53.188;8.696;2022-07-23T07:36:36;3.60;;;2.05;;
16845;SDS011;8539;53.188;8.696;2022-07-23T07:39:03;2.47;;;1.65;;
16845;SDS011;8539;53.188;8.696;2022-07-23T07:41:30;2.13;;;1.92;;
16845;SDS011;8539;53.188;8.696;2022-07-23T07:43:57;2.22;;;1.73;;
16845;SDS011;8539;53.188;8.696;2022-07-23T07:46:23;2.70;;;1.45;;
16845;SDS011;8539;53.188;8.696;2022-07-23T07:48:50;2.22;;;1.48;;
16845;SDS011;8539;53.188;8.696;2022-07-23T07:51:16;4.18;;;1.92;;
16845;SDS011;8539;53.188;8.696;2022-07-23T07:53:42;6.95;;;1.83;;
16845;SDS011;8539;53.188;8.696;2022-07-23T07:56:08;1.77;;;1.40;;
16845;SDS011;8539;53.188;8.696;2022-07-23T07:58:34;3.80;;;1.63;;
16845;SDS011;8539;53.188;8.696;2022-07-23T08:01:01;2.42;;;1.10;;
16845;SDS011;8539;53.188;8.696;2022-07-23T08:03:28;2.03;;;1.63;;
16845;SDS011;8539;53.188;8.696;2022-07-23T08:05:55;3.10;;;1.50;;
16845;SDS011;8539;53.188;8.696;2022-07-23T08:08:21;1.33;;;1.20;;
16845;SDS011;8539;53.188;8.696;2022-07-23T08:10:48;2.63;;;0.95;;
16845;SDS011;8539;53.188;8.696;2022-07-23T08:13:14;5.70;;;1.73;;
16845;SDS011;8539;53.188;8.696;2022-07-23T08:15:41;3.10;;;1.30;;
16845;SDS011;8539;53.188;8.696;2022-07-23T08:18:08;1.55;;;1.40;;
16845;SDS011;8539;53.188;8.696;2022-07-23T08:20:35;1.73;;;1.15;;
16845;SDS011;8539;53.188;8.696;2022-07-23T08:23:07;4.00;;;1.45;;
16845;SDS011;8539;53.188;8.696;2022-07-23T08:25:35;2.20;;;1.70;;
16845;SDS011;8539;53.188;8.696;2022-07-23T08:28:04;2.78;;;1.17;;
16845;SDS011;8539;53.188;8.696;2022-07-23T08:30:33;2.75;;;1.00;;
16845;SDS011;8539;53.188;8.696;2022-07-23T08:33:04;4.00;;;1.20;;
16845;SDS011;8539;53.188;8.696;2022-07-23T08:35:37;1.08;;;0.85;;
16845;SDS011;8539;53.188;8.696;2022-07-23T08:38:06;3.80;;;0.77;;
16845;SDS011;8539;53.188;8.696;2022-07-23T08:40:34;2.47;;;0.80;;
16845;SDS011;8539;53.188;8.696;2022-07-23T08:43:05;1.98;;;0.55;;
16845;SDS011;8539;53.188;8.696;2022-07-23T08:45:38;3.28;;;0.80;;
16845;SDS011;8539;53.188;8.696;2022-07-23T08:48:10;1.85;;;0.80;;
16845;SDS011;8539;53.188;8.696;2022-07-23T08:50:40;1.30;;;0.88;;
16845;SDS011;8539;53.188;8.696;2022-07-23T08:53:08;0.60;;;0.60;;
16845;SDS011;8539;53.188;8.696;2022-07-23T08:55:35;0.73;;;0.73;;
16845;SDS011;8539;53.188;8.696;2022-07-23T08:58:02;1.55;;;0.68;;
16845;SDS011;8539;53.188;8.696;2022-07-23T09:00:29;2.15;;;0.90;;
16845;SDS011;8539;53.188;8.696;2022-07-23T09:02:55;1.63;;;0.93;;
16845;SDS011;8539;53.188;8.696;2022-07-23T09:05:22;3.08;;;0.75;;
16845;SDS011;8539;53.188;8.696;2022-07-23T09:08:04;1.00;;;0.80;;
16845;SDS011;8539;53.188;8.696;2022-07-23T09:15:53;1.02;;;0.70;;
16845;SDS011;8539;53.188;8.696;2022-07-23T09:18:37;1.08;;;0.57;;
16845;SDS011;8539;53.188;8.696;2022-07-23T09:23:48;2.45;;;0.90;;
16845;SDS011;8539;53.188;8.696;2022-07-23T09:29:09;1.02;;;0.60;;
16845;SDS011;8539;53.188;8.696;2022-07-23T09:34:20;1.63;;;0.70;;
16845;SDS011;8539;53.188;8.696;2022-07-23T09:36:48;2.03;;;0.90;;
16845;SDS011;8539;53.188;8.696;2022-07-23T09:39:24;1.27;;;0.60;;
16845;SDS011;8539;53.188;8.696;2022-07-23T09:41:53;1.52;;;0.55;;
16845;SDS011;8539;53.188;8.696;2022-07-23T09:44:19;1.48;;;0.90;;
16845;SDS011;8539;53.188;8.696;2022-07-23T09:46:47;1.02;;;0.70;;
16845;SDS011;8539;53.188;8.696;2022-07-23T09:49:16;2.78;;;0.82;;
16845;SDS011;8539;53.188;8.696;2022-07-23T09:51:49;0.80;;;0.80;;
16845;SDS011;8539;53.188;8.696;2022-07-23T09:57:06;5.78;;;1.23;;
16845;SDS011;8539;53.188;8.696;2022-07-23T09:59:42;1.13;;;0.85;;
16845;SDS011;8539;53.188;8.696;2022-07-23T10:02:10;1.30;;;0.95;;
16845;SDS011;8539;53.188;8.696;2022-07-23T10:04:41;0.98;;;0.82;;
16845;SDS011;8539;53.188;8.696;2022-07-23T10:07:08;2.20;;;0.77;;
16845;SDS011;8539;53.188;8.696;2022-07-23T10:09:36;3.35;;;0.75;;
16845;SDS011;8539;53.188;8.696;2022-07-23T10:12:08;0.80;;;0.70;;
16845;SDS011;8539;53.188;8.696;2022-07-23T10:14:42;0.60;;;0.60;;
16845;SDS011;8539;53.188;8.696;2022-07-23T10:17:09;1.13;;;0.82;;
16845;SDS011;8539;53.188;8.696;2022-07-23T10:19:35;2.85;;;0.70;;
16845;SDS011;8539;53.188;8.696;2022-07-23T10:22:02;1.92;;;0.90;;
16845;SDS011;8539;53.188;8.696;2022-07-23T10:27:23;1.05;;;0.60;;
16845;SDS011;8539;53.188;8.696;2022-07-23T10:38:13;2.65;;;1.00;;
16845;SDS011;8539;53.188;8.696;2022-07-23T10:40:56;1.05;;;0.80;;
16845;SDS011;8539;53.188;8.696;2022-07-23T10:43:28;1.27;;;0.82;;
16845;SDS011;8539;53.188;8.696;2022-07-23T10:45:55;0.90;;;0.80;;
16845;SDS011;8539;53.188;8.696;2022-07-23T10:48:25;1.17;;;1.00;;
16845;SDS011;8539;53.188;8.696;2022-07-23T10:59:16;0.52;;;0.52;;
16845;SDS011;8539;53.188;8.696;2022-07-23T11:01:43;2.38;;;0.98;;
16845;SDS011;8539;53.188;8.696;2022-07-23T11:04:10;1.40;;;0.52;;
16845;SDS011;8539;53.188;8.696;2022-07-23T11:14:59;1.15;;;0.57;;
16845;SDS011;8539;53.188;8.696;2022-07-23T11:17:57;2.30;;;1.00;;
16845;SDS011;8539;53.188;8.696;2022-07-23T11:20:28;0.98;;;0.90;;
16845;SDS011;8539;53.188;8.696;2022-07-23T11:22:55;2.53;;;0.88;;
16845;SDS011;8539;53.188;8.696;2022-07-23T11:27:53;2.22;;;0.90;;
16845;SDS011;8539;53.188;8.696;2022-07-23T11:35:42;0.80;;;0.80;;
16845;SDS011;8539;53.188;8.696;2022-07-23T11:38:33;2.45;;;1.05;;
16845;SDS011;8539;53.188;8.696;2022-07-23T11:41:11;1.58;;;0.88;;
16845;SDS011;8539;53.188;8.696;2022-07-23T11:43:44;1.33;;;0.73;;
16845;SDS011;8539;53.188;8.696;2022-07-23T11:46:11;1.65;;;0.73;;
16845;SDS011;8539;53.188;8.696;2022-07-23T11:48:38;1.23;;;0.77;;
16845;SDS011;8539;53.188;8.696;2022-07-23T11:51:04;1.25;;;0.80;;
16845;SDS011;8539;53.188;8.696;2022-07-23T11:53:32;0.95;;;0.80;;
16845;SDS011;8539;53.188;8.696;2022-07-23T11:56:06;3.15;;;0.85;;
16845;SDS011;8539;53.188;8.696;2022-07-23T11:58:34;4.05;;;1.00;;
16845;SDS011;8539;53.188;8.696;2022-07-23T12:01:00;2.75;;;1.00;;
16845;SDS011;8539;53.188;8.696;2022-07-23T12:03:27;2.25;;;1.20;;
16845;SDS011;8539;53.188;8.696;2022-07-23T12:05:57;1.48;;;0.85;;
16845;SDS011;8539;53.188;8.696;2022-07-23T12:08:24;0.55;;;0.30;;
16845;SDS011;8539;53.188;8.696;2022-07-23T12:10:50;1.55;;;0.80;;
16845;SDS011;8539;53.188;8.696;2022-07-23T12:13:17;1.95;;;1.40;;
16845;SDS011;8539;53.188;8.696;2022-07-23T12:15:47;2.25;;;0.52;;
16845;SDS011;8539;53.188;8.696;2022-07-23T12:18:16;1.10;;;0.60;;
16845;SDS011;8539;53.188;8.696;2022-07-23T12:20:47;0.65;;;0.63;;
16845;SDS011;8539;53.188;8.696;2022-07-23T12:23:15;1.70;;;0.88;;
16845;SDS011;8539;53.188;8.696;2022-07-23T12:25:44;0.80;;;0.68;;
16845;SDS011;8539;53.188;8.696;2022-07-23T12:35:49;3.72;;;0.93;;
16845;SDS011;8539;53.188;8.696;2022-07-23T12:38:19;0.80;;;0.60;;
16845;SDS011;8539;53.188;8.696;2022-07-23T12:40:48;2.70;;;1.05;;
16845;SDS011;8539;53.188;8.696;2022-07-23T12:45:52;1.42;;;0.93;;
16845;SDS011;8539;53.188;8.696;2022-07-23T12:50:53;0.63;;;0.60;;
16845;SDS011;8539;53.188;8.696;2022-07-23T12:53:27;0.60;;;0.60;;
16845;SDS011;8539;53.188;8.696;2022-07-23T12:56:09;1.73;;;0.90;;
16845;SDS011;8539;53.188;8.696;2022-07-23T12:58:53;2.20;;;0.98;;
16845;SDS011;8539;53.188;8.696;2022-07-23T13:01:29;1.90;;;0.70;;
16845;SDS011;8539;53.188;8.696;2022-07-23T13:06:35;1.33;;;0.70;;
16845;SDS011;8539;53.188;8.696;2022-07-23T13:09:03;0.68;;;0.68;;
16845;SDS011;8539;53.188;8.696;2022-07-23T13:11:31;1.40;;;0.90;;
16845;SDS011;8539;53.188;8.696;2022-07-23T13:13:59;1.90;;;0.90;;
16845;SDS011;8539;53.188;8.696;2022-07-23T13:16:29;0.93;;;0.70;;
16845;SDS011;8539;53.188;8.696;2022-07-23T13:18:56;1.83;;;0.80;;
16845;SDS011;8539;53.188;8.696;2022-07-23T13:21:24;3.10;;;0.93;;
16845;SDS011;8539;53.188;8.696;2022-07-23T13:23:52;2.47;;;0.93;;
16845;SDS011;8539;53.188;8.696;2022-07-23T13:26:18;0.63;;;0.57;;
16845;SDS011;8539;53.188;8.696;2022-07-23T13:28:44;0.88;;;0.50;;
16845;SDS011;8539;53.188;8.696;2022-07-23T13:31:11;0.57;;;0.57;;
16845;SDS011;8539;53.188;8.696;2022-07-23T13:33:37;2.92;;;0.68;;
16845;SDS011;8539;53.188;8.696;2022-07-23T13:36:03;1.65;;;0.80;;
16845;SDS011;8539;53.188;8.696;2022-07-23T13:38:30;1.63;;;0.80;;
16845;SDS011;8539;53.188;8.696;2022-07-23T13:40:56;1.83;;;0.50;;
16845;SDS011;8539;53.188;8.696;2022-07-23T13:43:23;0.82;;;0.70;;
16845;SDS011;8539;53.188;8.696;2022-07-23T13:45:50;1.25;;;0.85;;
16845;SDS011;8539;53.188;8.696;2022-07-23T13:48:18;1.10;;;0.50;;
16845;SDS011;8539;53.188;8.696;2022-07-23T13:50:45;2.00;;;0.95;;
16845;SDS011;8539;53.188;8.696;2022-07-23T13:53:13;1.83;;;0.80;;
16845;SDS011;8539;53.188;8.696;2022-07-23T13:55:45;4.70;;;1.10;;
16845;SDS011;8539;53.188;8.696;2022-07-23T13:58:12;3.90;;;1.20;;
16845;SDS011;8539;53.188;8.696;2022-07-23T14:00:41;0.77;;;0.60;;
16845;SDS011;8539;53.188;8.696;2022-07-23T14:03:09;1.45;;;0.82;;
16845;SDS011;8539;53.188;8.696;2022-07-23T14:05:36;3.08;;;0.73;;
16845;SDS011;8539;53.188;8.696;2022-07-23T14:08:03;3.35;;;0.70;;
16845;SDS011;8539;53.188;8.696;2022-07-23T14:10:29;1.67;;;0.70;;
16845;SDS011;8539;53.188;8.696;2022-07-23T14:12:56;1.48;;;0.90;;
16845;SDS011;8539;53.188;8.696;2022-07-23T14:15:23;1.70;;;0.82;;
16845;SDS011;8539;53.188;8.696;2022-07-23T14:17:52;1.45;;;0.80;;
16845;SDS011;8539;53.188;8.696;2022-07-23T14:20:19;1.30;;;0.68;;
16845;SDS011;8539;53.188;8.696;2022-07-23T14:22:45;0.80;;;0.70;;
16845;SDS011;8539;53.188;8.696;2022-07-23T14:25:12;1.45;;;0.85;;
16845;SDS011;8539;53.188;8.696;2022-07-23T14:27:38;1.88;;;0.90;;
16845;SDS011;8539;53.188;8.696;2022-07-23T14:30:05;1.17;;;0.73;;
16845;SDS011;8539;53.188;8.696;2022-07-23T14:32:33;2.08;;;1.27;;
16845;SDS011;8539;53.188;8.696;2022-07-23T14:35:00;2.17;;;0.70;;
16845;SDS011;8539;53.188;8.696;2022-07-23T14:37:26;2.95;;;1.10;;
16845;SDS011;8539;53.188;8.696;2022-07-23T14:39:52;1.58;;;0.75;;
16845;SDS011;8539;53.188;8.696;2022-07-23T14:42:18;1.10;;;0.82;;
16845;SDS011;8539;53.188;8.696;2022-07-23T14:44:44;0.98;;;0.68;;
16845;SDS011;8539;53.188;8.696;2022-07-23T14:47:10;1.05;;;0.95;;
16845;SDS011;8539;53.188;8.696;2022-07-23T14:49:37;1.85;;;1.27;;
16845;SDS011;8539;53.188;8.696;2022-07-23T14:52:06;1.13;;;0.68;;
16845;SDS011;8539;53.188;8.696;2022-07-23T14:54:33;4.53;;;1.10;;
16845;SDS011;8539;53.188;8.696;2022-07-23T14:57:00;1.05;;;0.80;;
16845;SDS011;8539;53.188;8.696;2022-07-23T14:59:28;2.83;;;1.10;;
16845;SDS011;8539;53.188;8.696;2022-07-23T15:01:56;1.48;;;0.55;;
16845;SDS011;8539;53.188;8.696;2022-07-23T15:04:23;1.17;;;0.93;;
16845;SDS011;8539;53.188;8.696;2022-07-23T15:06:50;2.08;;;1.10;;
16845;SDS011;8539;53.188;8.696;2022-07-23T15:09:17;2.03;;;0.90;;
16845;SDS011;8539;53.188;8.696;2022-07-23T15:11:43;1.52;;;0.88;;
16845;SDS011;8539;53.188;8.696;2022-07-23T15:14:09;2.70;;;0.60;;
16845;SDS011;8539;53.188;8.696;2022-07-23T15:16:35;1.05;;;0.90;;
16845;SDS011;8539;53.188;8.696;2022-07-23T15:19:02;1.35;;;0.75;;
16845;SDS011;8539;53.188;8.696;2022-07-23T15:21:28;2.92;;;0.93;;
16845;SDS011;8539;53.188;8.696;2022-07-23T15:23:58;1.98;;;0.88;;
16845;SDS011;8539;53.188;8.696;2022-07-23T15:26:25;1.85;;;1.35;;
16845;SDS011;8539;53.188;8.696;2022-07-23T15:28:52;1.90;;;1.08;;
16845;SDS011;8539;53.188;8.696;2022-07-23T15:31:19;3.17;;;0.82;;
16845;SDS011;8539;53.188;8.696;2022-07-23T15:33:45;1.60;;;0.98;;
16845;SDS011;8539;53.188;8.696;2022-07-23T15:36:12;2.15;;;1.02;;
16845;SDS011;8539;53.188;8.696;2022-07-23T15:38:39;1.05;;;0.75;;
16845;SDS011;8539;53.188;8.696;2022-07-23T15:41:05;1.85;;;1.23;;
16845;SDS011;8539;53.188;8.696;2022-07-23T15:43:31;4.30;;;0.80;;
16845;SDS011;8539;53.188;8.696;2022-07-23T15:45:57;1.95;;;0.80;;
16845;SDS011;8539;53.188;8.696;2022-07-23T15:48:24;1.10;;;0.70;;
16845;SDS011;8539;53.188;8.696;2022-07-23T15:50:50;1.40;;;0.88;;
16845;SDS011;8539;53.188;8.696;2022-07-23T15:53:16;1.70;;;0.75;;
16845;SDS011;8539;53.188;8.696;2022-07-23T15:55:43;2.50;;;0.75;;
16845;SDS011;8539;53.188;8.696;2022-07-23T15:58:10;0.75;;;0.75;;
16845;SDS011;8539;53.188;8.696;2022-07-23T16:00:40;2.15;;;0.80;;
16845;SDS011;8539;53.188;8.696;2022-07-23T16:03:06;0.85;;;0.75;;
16845;SDS011;8539;53.188;8.696;2022-07-23T16:05:33;1.05;;;0.82;;
16845;SDS011;8539;53.188;8.696;2022-07-23T16:08:00;2.65;;;0.90;;
16845;SDS011;8539;53.188;8.696;2022-07-23T16:10:28;4.00;;;0.80;;